首页
METAR-TAF:

METAR-TAF

机场 :

潘泰萊里亞, 意大利

纬度: 36-49N, 经度: 011-58E, 海拔: 191米

当前天气观测

该预报发布于1小时和25分钟前的15:50 UTC
风速23节,风向西
温度 20°C
湿度 78%
气压 1008 hPa
能见度10公里或以上
少量云层高于1800英尺

METAR: LICG 051550Z 26023KT 9999 FEW018 20/16 Q1008

时间: 19:15 (17:15 UTC)

预报

该预报发布于3小时和15分钟前的14:00 UTC
预报有效从05日的 15点(UTC)到 05日的 24点(UTC)
风速18节,风向西转西北,有时为28节阵风
能见度10公里或以上
散云层高于3000英尺

TAF: LICG 051400Z 0515/0524 30018G28KT 9999 SCT030

超过4000个机场的气象观测和天气预报(METAR&TAF报告)。

可查询的气象台以黄色和红色小点在地图上表示。

将鼠标移到小点上方,可查看气象台名称。

然后点击查看天气观测和预报。

如需切换地图:点击带黑十字的绿色按钮放大地图;点击带横线的绿色按钮缩小地图;或者点击绿色箭头查看邻近地区的地图。


METAR-TAF: